X  Sluiten METAR luchtvaart weer gegevens      EBBR Brussels Airport
Temperatuur
6°C Temperatuur
5°C Dauwpunt
93% Vochtigheid



Wind
2 KM/U
1 MPH
0 M/S
1 KTS



Kalm
Noord
Huidig weer

Mist Mist
Luchtdruk 1017.92 (hPa) - 30.06 (inHg)
Zicht 1.2 (mijl) - 2 (km)
Vliegveld
Vliegveld code EBBR

Locatie : Brussels Airport
Afstand: 14 (km)

Metar:
EBBR 271850Z VRB01KT 1600 BR SCT003 06/05 Q1018 TEMPO 1200 BR

Tijd: 2020-11-27 19:50 CET